Kitty C — 2EIQ6 — position and weather

sailwx.info

Track history (hours):
 
Tides and Currents Weather Stations Pressure Air Temp Water Temp Dewpoint Dewpoint Depression Visibility Wind Speed Wind Dir Waves Ship Positions

Kitty C

Last reported at 2014-Aug-01 06:31 UTC. Time now 2014-Aug-01 09:48 UTC.
Position N 50°10' W 002°02'.

Length 106 m; draft 6.7 m.

Type: Cargo ship. MMSI: 235085464.

Date/timePositionNaut miles runAvg speedWind from/ knotsBaromVisibWave heightAir tempDewpointWater temp
2014-Aug-01 06:31N 50°10' W 002°02'2110.4
2014-Aug-01 04:31N 50°15' W 001°30'1210.5
2014-Aug-01 03:20N 50°19' W 001°11'8 9.4
2014-Aug-01 02:30N 50°21' W 000°59'8 7.7
2014-Aug-01 01:29N 50°23' W 000°48'6 6.1
2014-Aug-01 00:33N 50°24' W 000°39'42 6.9
2014-Jul-31 18:30N 50°35' E 000°24'8 8.9
2014-Jul-31 17:33N 50°38' E 000°37'8 8.3
2014-Jul-31 16:33N 50°43' E 000°47'8 7.5
2014-Jul-31 15:33N 50°48' E 000°56'22 6.6
2014-Jul-31 12:09N 51°02' E 001°24'6 9.2
2014-Jul-31 11:30N 51°06' E 001°32'1010.5
2014-Jul-31 10:33N 51°12' E 001°44'1110.6
2014-Jul-31 09:33N 51°21' E 001°53'10 9.5
2014-Jul-31 08:33N 51°29' E 002°01'9 8.4
2014-Jul-31 07:31N 51°36' E 002°10'9 9.4
2014-Jul-31 06:33N 51°43' E 002°20'8 7.4
2014-Jul-31 05:30N 51°48' E 002°28'9 6.8
2014-Jul-31 04:08N 51°56' E 002°38'12 7.1
2014-Jul-31 02:30N 52°05' E 002°50'108 9.1
2014-Jul-30 14:34N 53°30' E 004°41'1110.8
2014-Jul-30 13:33N 53°33' E 004°58'1010.4
2014-Jul-30 12:33N 53°37' E 005°15'10 9.8
2014-Jul-30 11:33N 53°40' E 005°30'9 9.2
2014-Jul-30 10:33N 53°43' E 005°45'9 8.7
2014-Jul-30 09:33N 53°46' E 005°58'5410.0
2014-Jul-30 04:09N 53°60' E 007°27'710.9
2014-Jul-30 03:33N 54°01' E 007°38'1010.4
2014-Jul-30 02:33N 54°01' E 007°56'14 9.8
2014-Jul-30 01:07N 53°60' E 008°20'5 9.2
2014-Jul-30 00:32N 53°59' E 008°29'8 7.7
2014-Jul-29 23:33N 53°55' E 008°40'8 7.6
2014-Jul-29 22:33N 53°50' E 008°50'1111.3
2014-Jul-29 21:33N 53°53' E 009°09'1010.2
2014-Jul-29 20:33N 53°47' E 009°23'1212.1
2014-Jul-29 19:33N 53°37' E 009°34'1211.7
2014-Jul-29 18:33N 53°33' E 009°52'6 4.6
2014-Jul-29 17:17N 53°28' E 009°58'0 0.0
2014-Jul-29 16:29N 53°28' E 009°58'0 0.0
2014-Jul-29 15:32N 53°28' E 009°58'0 0.0
2014-Jul-29 14:29N 53°28' E 009°58'0 0.0
2014-Jul-29 13:29N 53°28' E 009°58'0 0.0
2014-Jul-29 12:23N 53°28' E 009°58'0 0.0
2014-Jul-29 11:29N 53°28' E 009°58'0 0.0
2014-Jul-29 10:29N 53°28' E 009°58'0 0.0
2014-Jul-29 09:32N 53°28' E 009°58'0 0.0
2014-Jul-29 08:29N 53°28' E 009°58'0 0.0
2014-Jul-29 07:32N 53°28' E 009°58'0 0.0
2014-Jul-29 06:32N 53°28' E 009°58'0 0.0
2014-Jul-29 05:29N 53°28' E 009°58'0 0.0
2014-Jul-29 04:29N 53°28' E 009°58'0 0.0
2014-Jul-29 03:29N 53°28' E 009°58'0 0.0
2014-Jul-29 02:32N 53°28' E 009°58'0 0.0
2014-Jul-29 01:29N 53°28' E 009°58'0 0.0
2014-Jul-29 00:29N 53°28' E 009°58'0 0.0
2014-Jul-28 23:32N 53°28' E 009°58'0 0.0
2014-Jul-28 22:29N 53°28' E 009°58'0 0.0
2014-Jul-28 21:29N 53°28' E 009°58'0 0.0
2014-Jul-28 20:32N 53°28' E 009°58'0 0.0
2014-Jul-28 19:32N 53°28' E 009°58'0 0.0
2014-Jul-28 18:29N 53°28' E 009°58'0 0.0
2014-Jul-28 17:32N 53°28' E 009°58'0 0.0
2014-Jul-28 16:29N 53°28' E 009°58'0 0.0
2014-Jul-28 15:29N 53°28' E 009°58'0 0.0
2014-Jul-28 14:29N 53°28' E 009°58'0 0.0
2014-Jul-28 13:32N 53°28' E 009°58'0 0.0
2014-Jul-28 12:23N 53°28' E 009°58'0 0.0
2014-Jul-28 11:29N 53°28' E 009°58'0 0.0
2014-Jul-28 10:29N 53°28' E 009°58'0 0.0
2014-Jul-28 09:32N 53°28' E 009°58'0 0.0
2014-Jul-28 08:23N 53°28' E 009°58'0 0.0
2014-Jul-28 07:29N 53°28' E 009°58'0 0.0
2014-Jul-28 06:23N 53°28' E 009°58'0 0.0
2014-Jul-28 05:34N 53°28' E 009°58'0 0.0
2014-Jul-28 04:33N 53°28' E 009°58'2 1.8
2014-Jul-28 03:34N 53°30' E 009°57'7 6.5
2014-Jul-28 02:34N 53°33' E 009°48'8 7.9
2014-Jul-28 01:33N 53°36' E 009°35'9 8.9
2014-Jul-28 00:33N 53°44' E 009°27'1212.3
2014-Jul-27 23:32N 53°53' E 009°12'0 0.3
2014-Jul-27 22:32N 53°53' E 009°12'0 0.0
2014-Jul-27 15:13N 53°53' E 009°12'0 0.0
2014-Jul-27 14:31N 53°53' E 009°12'0 0.0
2014-Jul-27 13:20N 53°53' E 009°12'0 0.0
2014-Jul-27 12:11N 53°53' E 009°12'0 0.0
2014-Jul-27 11:33N 53°53' E 009°12'7 6.8
2014-Jul-27 10:33N 53°51' E 009°01'1212.4
2014-Jul-27 09:33N 53°55' E 008°40'1313.1
2014-Jul-27 08:33N 53°59' E 008°20'1212.2
2014-Jul-27 07:33N 54°01' E 007°59'1111.5
2014-Jul-27 06:33N 54°07' E 007°42'1110.9
2014-Jul-27 05:33N 54°13' E 007°26'1110.6
2014-Jul-27 04:33N 54°20' E 007°13'1010.4
2014-Jul-27 03:33N 54°27' E 006°59'119 9.8
2014-Jul-26 15:22N 54°58' E 003°40'910.6
2014-Jul-26 14:33N 55°01' E 003°26'1010.3
2014-Jul-26 13:33N 55°05' E 003°09'1210.2
2014-Jul-26 12:24N 55°09' E 002°50'910.3
2014-Jul-26 11:33N 55°12' E 002°35'1110.7
2014-Jul-26 10:30N 55°15' E 002°16'1011.0
2014-Jul-26 09:33N 55°18' E 001°59'1111.3
2014-Jul-26 08:34N 55°22' E 001°40'1111.3
2014-Jul-26 07:33N 55°25' E 001°21'1111.2
2014-Jul-26 06:34N 55°28' E 001°02'1111.2
2014-Jul-26 05:34N 55°31' E 000°43'1111.4
2014-Jul-26 04:33N 55°35' E 000°24'1511.3
2014-Jul-26 03:16N 55°39' W 000°01'811.5
2014-Jul-26 02:34N 55°41' W 000°15'1111.4
2014-Jul-26 01:33N 55°45' W 000°34'1111.3
2014-Jul-26 00:33N 55°48' W 000°53'1211.6
2014-Jul-25 23:33N 55°51' W 001°13'1211.3
2014-Jul-25 22:28N 55°55' W 001°34'1010.7
2014-Jul-25 21:31N 55°58' W 001°51'1210.4
2014-Jul-25 20:21N 56°02' W 002°12'2310.5
2014-Jul-25 18:12N 56°05' W 002°52'910.6
2014-Jul-25 17:18N 56°03' W 003°09'811.3
2014-Jul-25 16:33N 56°00' W 003°23'2 1.6
2014-Jul-25 15:22N 56°01' W 003°26'0 0.0
2014-Jul-25 14:25N 56°01' W 003°26'0 0.0
2014-Jul-25 13:13N 56°01' W 003°26'0 0.0
2014-Jul-25 12:28N 56°01' W 003°26'0 0.0
2014-Jul-25 11:28N 56°01' W 003°26'0 0.0
2014-Jul-25 10:31N 56°01' W 003°26'0 0.0
2014-Jul-25 09:31N 56°01' W 003°26'0 0.0
2014-Jul-25 08:31N 56°01' W 003°26'0 0.0
2014-Jul-25 07:31N 56°01' W 003°26'0 0.0
2014-Jul-25 06:28N 56°01' W 003°26'0 0.0
2014-Jul-25 05:31N 56°01' W 003°26'0 0.0
2014-Jul-25 04:25N 56°01' W 003°26'0 0.0
2014-Jul-25 03:22N 56°01' W 003°26'0 0.0
2014-Jul-25 02:31N 56°01' W 003°26'0 0.0
2014-Jul-25 01:28N 56°01' W 003°26'0 0.0
2014-Jul-25 00:25N 56°01' W 003°26'0 0.0
2014-Jul-24 23:25N 56°01' W 003°26'0 0.0
2014-Jul-24 22:25N 56°01' W 003°26'0 0.0
2014-Jul-24 21:31N 56°01' W 003°26'0 0.0
2014-Jul-24 20:31N 56°01' W 003°26'0 0.0
2014-Jul-24 19:31N 56°01' W 003°26'0 0.0
2014-Jul-24 18:28N 56°01' W 003°26'0 0.0
2014-Jul-24 17:31N 56°01' W 003°26'0 0.0
2014-Jul-24 16:25N 56°01' W 003°26'0 0.0
2014-Jul-24 15:28N 56°01' W 003°26'0 0.0
2014-Jul-24 14:28N 56°01' W 003°26'0 0.0
2014-Jul-24 13:31N 56°01' W 003°26'0 0.0
2014-Jul-24 12:28N 56°01' W 003°26'0 0.0
2014-Jul-24 11:32N 56°01' W 003°26'4 4.3
2014-Jul-24 10:32N 56°01' W 003°18'50 9.6
2014-Jul-24 05:21N 55°53' W 001°51'810.0
2014-Jul-24 04:31N 55°47' W 001°40'10 9.6
2014-Jul-24 03:30N 55°40' W 001°28'9 9.4
2014-Jul-24 02:33N 55°33' W 001°19'9 9.3
2014-Jul-24 01:33N 55°25' W 001°10'10 9.3
2014-Jul-24 00:28N 55°17' W 001°00'9 9.5
2014-Jul-23 23:33N 55°09' W 000°52'10 9.6
2014-Jul-23 22:30N 55°01' W 000°43'1010.0
2014-Jul-23 21:30N 54°52' W 000°33'1010.1
2014-Jul-23 20:34N 54°45' W 000°24'1110.6
2014-Jul-23 19:34N 54°36' W 000°14'1110.7
2014-Jul-23 18:34N 54°27' W 000°04'1110.5
2014-Jul-23 17:34N 54°18' E 000°06'1010.0
2014-Jul-23 16:34N 54°10' E 000°16'10 9.5
2014-Jul-23 15:34N 54°02' E 000°24'9 8.9
2014-Jul-23 14:33N 53°54' E 000°32'8 8.5
2014-Jul-23 13:34N 53°47' E 000°40'9 8.7
2014-Jul-23 12:33N 53°40' E 000°48'9 9.4
2014-Jul-23 11:34N 53°32' E 000°57'2210.5
2014-Jul-23 09:27N 53°13' E 001°17'910.3
2014-Jul-23 08:34N 53°05' E 001°25'10 9.6
2014-Jul-23 07:34N 52°58' E 001°35'9 8.6
2014-Jul-23 06:33N 52°51' E 001°45'10 7.9
2014-Jul-23 05:17N 52°44' E 001°56'13 7.7
2014-Jul-23 03:32N 52°31' E 001°53'19 9.5
2014-Jul-23 01:34N 52°12' E 001°52'1110.7
2014-Jul-23 00:34N 52°01' E 001°50'1111.0
2014-Jul-22 23:34N 51°50' E 001°49'1110.6
2014-Jul-22 22:33N 51°40' E 001°49'1010.3
2014-Jul-22 21:33N 51°30' E 001°45'1010.3
2014-Jul-22 20:34N 51°20' E 001°41'10 9.8
2014-Jul-22 19:34N 51°10' E 001°35'7 7.2
2014-Jul-22 18:34N 51°03' E 001°36'10 9.2
2014-Jul-22 17:29N 50°55' E 001°26'31 7.8
2014-Jul-22 13:30N 50°32' E 000°55'9 8.6
2014-Jul-22 12:30N 50°29' E 000°42'8 8.6
2014-Jul-22 11:33N 50°27' E 000°30'  
Track history (hours):
 
Tides and Currents Weather Stations Pressure Air Temp Water Temp Dewpoint Dewpoint Depression Visibility Wind Speed Wind Dir Waves Ship Positions

Kitty C

Last reported at 2014-Aug-01 06:31 UTC. Time now 2014-Aug-01 09:48 UTC.
Position N 50°10' W 002°02'.

Length 106 m; draft 6.7 m.

Type: Cargo ship. MMSI: 235085464.

Date/timePositionNaut miles runAvg speedWind from/ knotsBaromVisibWave heightAir tempDewpointWater temp
2014-Aug-01 06:31N 50°10' W 002°02'2110.4
2014-Aug-01 04:31N 50°15' W 001°30'1210.5
2014-Aug-01 03:20N 50°19' W 001°11'8 9.4
2014-Aug-01 02:30N 50°21' W 000°59'8 7.7
2014-Aug-01 01:29N 50°23' W 000°48'6 6.1
2014-Aug-01 00:33N 50°24' W 000°39'42 6.9
2014-Jul-31 18:30N 50°35' E 000°24'8 8.9
2014-Jul-31 17:33N 50°38' E 000°37'8 8.3
2014-Jul-31 16:33N 50°43' E 000°47'8 7.5
2014-Jul-31 15:33N 50°48' E 000°56'22 6.6
2014-Jul-31 12:09N 51°02' E 001°24'6 9.2
2014-Jul-31 11:30N 51°06' E 001°32'1010.5
2014-Jul-31 10:33N 51°12' E 001°44'1110.6
2014-Jul-31 09:33N 51°21' E 001°53'10 9.5
2014-Jul-31 08:33N 51°29' E 002°01'9 8.4
2014-Jul-31 07:31N 51°36' E 002°10'9 9.4
2014-Jul-31 06:33N 51°43' E 002°20'8 7.4
2014-Jul-31 05:30N 51°48' E 002°28'9 6.8
2014-Jul-31 04:08N 51°56' E 002°38'12 7.1
2014-Jul-31 02:30N 52°05' E 002°50'108 9.1
2014-Jul-30 14:34N 53°30' E 004°41'1110.8
2014-Jul-30 13:33N 53°33' E 004°58'1010.4
2014-Jul-30 12:33N 53°37' E 005°15'10 9.8
2014-Jul-30 11:33N 53°40' E 005°30'9 9.2
2014-Jul-30 10:33N 53°43' E 005°45'9 8.7
2014-Jul-30 09:33N 53°46' E 005°58'5410.0
2014-Jul-30 04:09N 53°60' E 007°27'710.9
2014-Jul-30 03:33N 54°01' E 007°38'1010.4
2014-Jul-30 02:33N 54°01' E 007°56'14 9.8
2014-Jul-30 01:07N 53°60' E 008°20'5 9.2
2014-Jul-30 00:32N 53°59' E 008°29'8 7.7
2014-Jul-29 23:33N 53°55' E 008°40'8 7.6
2014-Jul-29 22:33N 53°50' E 008°50'1111.3
2014-Jul-29 21:33N 53°53' E 009°09'1010.2
2014-Jul-29 20:33N 53°47' E 009°23'1212.1
2014-Jul-29 19:33N 53°37' E 009°34'1211.7
2014-Jul-29 18:33N 53°33' E 009°52'6 4.6
2014-Jul-29 17:17N 53°28' E 009°58'0 0.0
2014-Jul-29 16:29N 53°28' E 009°58'0 0.0
2014-Jul-29 15:32N 53°28' E 009°58'0 0.0
2014-Jul-29 14:29N 53°28' E 009°58'0 0.0
2014-Jul-29 13:29N 53°28' E 009°58'0 0.0
2014-Jul-29 12:23N 53°28' E 009°58'0 0.0
2014-Jul-29 11:29N 53°28' E 009°58'0 0.0
2014-Jul-29 10:29N 53°28' E 009°58'0 0.0
2014-Jul-29 09:32N 53°28' E 009°58'0 0.0
2014-Jul-29 08:29N 53°28' E 009°58'0 0.0
2014-Jul-29 07:32N 53°28' E 009°58'0 0.0
2014-Jul-29 06:32N 53°28' E 009°58'0 0.0
2014-Jul-29 05:29N 53°28' E 009°58'0 0.0
2014-Jul-29 04:29N 53°28' E 009°58'0 0.0
2014-Jul-29 03:29N 53°28' E 009°58'0 0.0
2014-Jul-29 02:32N 53°28' E 009°58'0 0.0
2014-Jul-29 01:29N 53°28' E 009°58'0 0.0
2014-Jul-29 00:29N 53°28' E 009°58'0 0.0
2014-Jul-28 23:32N 53°28' E 009°58'0 0.0
2014-Jul-28 22:29N 53°28' E 009°58'0 0.0
2014-Jul-28 21:29N 53°28' E 009°58'0 0.0
2014-Jul-28 20:32N 53°28' E 009°58'0 0.0
2014-Jul-28 19:32N 53°28' E 009°58'0 0.0
2014-Jul-28 18:29N 53°28' E 009°58'0 0.0
2014-Jul-28 17:32N 53°28' E 009°58'0 0.0
2014-Jul-28 16:29N 53°28' E 009°58'0 0.0
2014-Jul-28 15:29N 53°28' E 009°58'0 0.0
2014-Jul-28 14:29N 53°28' E 009°58'0 0.0
2014-Jul-28 13:32N 53°28' E 009°58'0 0.0
2014-Jul-28 12:23N 53°28' E 009°58'0 0.0
2014-Jul-28 11:29N 53°28' E 009°58'0 0.0
2014-Jul-28 10:29N 53°28' E 009°58'0 0.0
2014-Jul-28 09:32N 53°28' E 009°58'0 0.0
2014-Jul-28 08:23N 53°28' E 009°58'0 0.0
2014-Jul-28 07:29N 53°28' E 009°58'0 0.0
2014-Jul-28 06:23N 53°28' E 009°58'0 0.0
2014-Jul-28 05:34N 53°28' E 009°58'0 0.0
2014-Jul-28 04:33N 53°28' E 009°58'2 1.8
2014-Jul-28 03:34N 53°30' E 009°57'7 6.5
2014-Jul-28 02:34N 53°33' E 009°48'8 7.9
2014-Jul-28 01:33N 53°36' E 009°35'9 8.9
2014-Jul-28 00:33N 53°44' E 009°27'1212.3
2014-Jul-27 23:32N 53°53' E 009°12'0 0.3
2014-Jul-27 22:32N 53°53' E 009°12'0 0.0
2014-Jul-27 15:13N 53°53' E 009°12'0 0.0
2014-Jul-27 14:31N 53°53' E 009°12'0 0.0
2014-Jul-27 13:20N 53°53' E 009°12'0 0.0
2014-Jul-27 12:11N 53°53' E 009°12'0 0.0
2014-Jul-27 11:33N 53°53' E 009°12'7 6.8
2014-Jul-27 10:33N 53°51' E 009°01'1212.4
2014-Jul-27 09:33N 53°55' E 008°40'1313.1
2014-Jul-27 08:33N 53°59' E 008°20'1212.2
2014-Jul-27 07:33N 54°01' E 007°59'1111.5
2014-Jul-27 06:33N 54°07' E 007°42'1110.9
2014-Jul-27 05:33N 54°13' E 007°26'1110.6
2014-Jul-27 04:33N 54°20' E 007°13'1010.4
2014-Jul-27 03:33N 54°27' E 006°59'119 9.8
2014-Jul-26 15:22N 54°58' E 003°40'910.6
2014-Jul-26 14:33N 55°01' E 003°26'1010.3
2014-Jul-26 13:33N 55°05' E 003°09'1210.2
2014-Jul-26 12:24N 55°09' E 002°50'910.3
2014-Jul-26 11:33N 55°12' E 002°35'1110.7
2014-Jul-26 10:30N 55°15' E 002°16'1011.0
2014-Jul-26 09:33N 55°18' E 001°59'1111.3
2014-Jul-26 08:34N 55°22' E 001°40'1111.3
2014-Jul-26 07:33N 55°25' E 001°21'1111.2
2014-Jul-26 06:34N 55°28' E 001°02'1111.2
2014-Jul-26 05:34N 55°31' E 000°43'1111.4
2014-Jul-26 04:33N 55°35' E 000°24'1511.3
2014-Jul-26 03:16N 55°39' W 000°01'811.5
2014-Jul-26 02:34N 55°41' W 000°15'1111.4
2014-Jul-26 01:33N 55°45' W 000°34'1111.3
2014-Jul-26 00:33N 55°48' W 000°53'1211.6
2014-Jul-25 23:33N 55°51' W 001°13'1211.3
2014-Jul-25 22:28N 55°55' W 001°34'1010.7
2014-Jul-25 21:31N 55°58' W 001°51'1210.4
2014-Jul-25 20:21N 56°02' W 002°12'2310.5
2014-Jul-25 18:12N 56°05' W 002°52'910.6
2014-Jul-25 17:18N 56°03' W 003°09'811.3
2014-Jul-25 16:33N 56°00' W 003°23'2 1.6
2014-Jul-25 15:22N 56°01' W 003°26'0 0.0
2014-Jul-25 14:25N 56°01' W 003°26'0 0.0
2014-Jul-25 13:13N 56°01' W 003°26'0 0.0
2014-Jul-25 12:28N 56°01' W 003°26'0 0.0
2014-Jul-25 11:28N 56°01' W 003°26'0 0.0
2014-Jul-25 10:31N 56°01' W 003°26'0 0.0
2014-Jul-25 09:31N 56°01' W 003°26'0 0.0
2014-Jul-25 08:31N 56°01' W 003°26'0 0.0
2014-Jul-25 07:31N 56°01' W 003°26'0 0.0
2014-Jul-25 06:28N 56°01' W 003°26'0 0.0
2014-Jul-25 05:31N 56°01' W 003°26'0 0.0
2014-Jul-25 04:25N 56°01' W 003°26'0 0.0
2014-Jul-25 03:22N 56°01' W 003°26'0 0.0
2014-Jul-25 02:31N 56°01' W 003°26'0 0.0
2014-Jul-25 01:28N 56°01' W 003°26'0 0.0
2014-Jul-25 00:25N 56°01' W 003°26'0 0.0
2014-Jul-24 23:25N 56°01' W 003°26'0 0.0
2014-Jul-24 22:25N 56°01' W 003°26'0 0.0
2014-Jul-24 21:31N 56°01' W 003°26'0 0.0
2014-Jul-24 20:31N 56°01' W 003°26'0 0.0
2014-Jul-24 19:31N 56°01' W 003°26'0 0.0
2014-Jul-24 18:28N 56°01' W 003°26'0 0.0
2014-Jul-24 17:31N 56°01' W 003°26'0 0.0
2014-Jul-24 16:25N 56°01' W 003°26'0 0.0
2014-Jul-24 15:28N 56°01' W 003°26'0 0.0
2014-Jul-24 14:28N 56°01' W 003°26'0 0.0
2014-Jul-24 13:31N 56°01' W 003°26'0 0.0
2014-Jul-24 12:28N 56°01' W 003°26'0 0.0
2014-Jul-24 11:32N 56°01' W 003°26'4 4.3
2014-Jul-24 10:32N 56°01' W 003°18'50 9.6
2014-Jul-24 05:21N 55°53' W 001°51'810.0
2014-Jul-24 04:31N 55°47' W 001°40'10 9.6
2014-Jul-24 03:30N 55°40' W 001°28'9 9.4
2014-Jul-24 02:33N 55°33' W 001°19'9 9.3
2014-Jul-24 01:33N 55°25' W 001°10'10 9.3
2014-Jul-24 00:28N 55°17' W 001°00'9 9.5
2014-Jul-23 23:33N 55°09' W 000°52'10 9.6
2014-Jul-23 22:30N 55°01' W 000°43'1010.0
2014-Jul-23 21:30N 54°52' W 000°33'1010.1
2014-Jul-23 20:34N 54°45' W 000°24'1110.6
2014-Jul-23 19:34N 54°36' W 000°14'1110.7
2014-Jul-23 18:34N 54°27' W 000°04'1110.5
2014-Jul-23 17:34N 54°18' E 000°06'1010.0
2014-Jul-23 16:34N 54°10' E 000°16'10 9.5
2014-Jul-23 15:34N 54°02' E 000°24'9 8.9
2014-Jul-23 14:33N 53°54' E 000°32'8 8.5
2014-Jul-23 13:34N 53°47' E 000°40'9 8.7
2014-Jul-23 12:33N 53°40' E 000°48'9 9.4
2014-Jul-23 11:34N 53°32' E 000°57'2210.5
2014-Jul-23 09:27N 53°13' E 001°17'910.3
2014-Jul-23 08:34N 53°05' E 001°25'10 9.6
2014-Jul-23 07:34N 52°58' E 001°35'9 8.6
2014-Jul-23 06:33N 52°51' E 001°45'10 7.9
2014-Jul-23 05:17N 52°44' E 001°56'13 7.7
2014-Jul-23 03:32N 52°31' E 001°53'19 9.5
2014-Jul-23 01:34N 52°12' E 001°52'1110.7
2014-Jul-23 00:34N 52°01' E 001°50'1111.0
2014-Jul-22 23:34N 51°50' E 001°49'1110.6
2014-Jul-22 22:33N 51°40' E 001°49'1010.3
2014-Jul-22 21:33N 51°30' E 001°45'1010.3
2014-Jul-22 20:34N 51°20' E 001°41'10 9.8
2014-Jul-22 19:34N 51°10' E 001°35'7 7.2
2014-Jul-22 18:34N 51°03' E 001°36'10 9.2
2014-Jul-22 17:29N 50°55' E 001°26'31 7.8
2014-Jul-22 13:30N 50°32' E 000°55'9 8.6
2014-Jul-22 12:30N 50°29' E 000°42'8 8.6
2014-Jul-22 11:33N 50°27' E 000°30'  

Dump ship's entire track history